createdAt,value
2018-07-22T00:02:22.909Z,22.43
2018-07-22T00:04:51.224Z,23.20
2018-07-22T00:07:18.824Z,25.53
2018-07-22T00:09:46.375Z,18.60
2018-07-22T00:12:13.927Z,19.73
2018-07-22T00:14:41.512Z,20.85
2018-07-22T00:17:09.073Z,21.17
2018-07-22T00:19:36.632Z,23.35
2018-07-22T00:22:04.231Z,21.92
2018-07-22T00:24:31.785Z,21.73
2018-07-22T00:27:00.112Z,18.37
2018-07-22T00:29:27.705Z,20.07
2018-07-22T00:31:55.257Z,16.87
2018-07-22T00:34:22.820Z,18.33
2018-07-22T00:36:50.420Z,20.60
2018-07-22T00:39:17.976Z,20.40
2018-07-22T00:41:45.530Z,23.43
2018-07-22T00:44:13.895Z,18.13
2018-07-22T00:46:41.457Z,23.57
2018-07-22T00:49:09.023Z,20.67
2018-07-22T00:51:37.380Z,21.60
2018-07-22T00:54:04.937Z,24.33
2018-07-22T00:56:32.489Z,24.53
2018-07-22T00:59:00.087Z,21.13
2018-07-22T01:01:27.641Z,20.90
2018-07-22T01:03:55.245Z,21.20
2018-07-22T01:06:22.831Z,23.87
2018-07-22T01:08:50.388Z,22.10
2018-07-22T01:11:17.944Z,22.07
2018-07-22T01:13:45.533Z,19.90
2018-07-22T01:16:13.092Z,21.03
2018-07-22T01:18:40.649Z,27.27
2018-07-22T01:21:08.264Z,21.33
2018-07-22T01:23:35.817Z,21.70
2018-07-22T01:26:03.379Z,20.27
2018-07-22T01:28:30.964Z,23.17
2018-07-22T01:30:58.521Z,25.13
2018-07-22T01:33:26.081Z,23.60
2018-07-22T01:35:53.671Z,19.97
2018-07-22T01:38:21.225Z,19.00
2018-07-22T01:40:48.788Z,23.20
2018-07-22T01:43:16.459Z,18.73
2018-07-22T01:45:44.724Z,21.53
2018-07-22T01:48:12.281Z,21.03
2018-07-22T01:50:39.869Z,22.43
2018-07-22T01:53:07.439Z,19.50
2018-07-22T01:55:34.998Z,26.37
2018-07-22T01:58:02.585Z,20.70
2018-07-22T02:00:30.906Z,22.03
2018-07-22T02:02:58.464Z,25.30
2018-07-22T02:05:26.072Z,24.43
2018-07-22T02:07:54.401Z,25.97
2018-07-22T02:10:21.958Z,23.10
2018-07-22T02:12:49.553Z,28.40
2018-07-22T02:15:17.113Z,24.57
2018-07-22T02:17:44.668Z,26.53
2018-07-22T02:20:12.258Z,22.60
2018-07-22T02:22:40.582Z,19.53
2018-07-22T02:25:08.147Z,17.53
2018-07-22T02:27:35.763Z,18.37
2018-07-22T02:30:04.080Z,17.93
2018-07-22T02:32:31.646Z,21.43
2018-07-22T02:34:59.232Z,17.43
2018-07-22T02:37:26.794Z,18.27
2018-07-22T02:39:54.346Z,20.77
2018-07-22T02:42:21.938Z,20.10
2018-07-22T02:44:49.499Z,21.50
2018-07-22T02:47:17.064Z,19.57
2018-07-22T02:49:44.671Z,19.33
2018-07-22T02:52:12.236Z,19.43
2018-07-22T02:54:39.787Z,18.67
2018-07-22T02:57:07.371Z,19.80
2018-07-22T02:59:34.932Z,19.90
2018-07-22T03:02:02.484Z,19.60
2018-07-22T03:04:30.084Z,18.83
2018-07-22T03:06:57.637Z,21.73
2018-07-22T03:09:25.213Z,21.05
2018-07-22T03:11:53.224Z,21.52
2018-07-22T03:14:20.788Z,21.75
2018-07-22T03:16:48.358Z,18.80
2018-07-22T03:19:15.971Z,18.50
2018-07-22T03:21:43.543Z,16.33
2018-07-22T03:24:11.883Z,19.40
2018-07-22T03:26:39.485Z,19.47
2018-07-22T03:29:07.820Z,17.03
2018-07-22T03:31:35.390Z,17.57
2018-07-22T03:34:03.008Z,21.23
2018-07-22T03:36:30.579Z,21.10
2018-07-22T03:38:58.144Z,17.87
2018-07-22T03:41:25.746Z,17.50
2018-07-22T03:43:53.306Z,17.40
2018-07-22T03:46:20.875Z,19.33
2018-07-22T03:48:48.474Z,17.73
2018-07-22T03:51:16.039Z,17.70
2018-07-22T03:53:43.601Z,18.10
2018-07-22T03:56:11.224Z,17.60
2018-07-22T03:58:38.793Z,14.57
2018-07-22T04:01:06.356Z,14.97
2018-07-22T04:03:33.952Z,15.67
2018-07-22T04:06:01.516Z,15.40
2018-07-22T04:08:29.081Z,17.90
2018-07-22T04:10:56.674Z,15.17
2018-07-22T04:13:24.235Z,14.57
2018-07-22T04:15:51.798Z,17.95
2018-07-22T04:18:20.071Z,17.90
2018-07-22T04:20:47.634Z,15.93
2018-07-22T04:23:15.201Z,17.17
2018-07-22T04:25:42.791Z,17.13
2018-07-22T04:28:11.122Z,16.57
2018-07-22T04:30:38.684Z,17.80
2018-07-22T04:33:06.284Z,15.50
2018-07-22T04:35:33.847Z,15.57
2018-07-22T04:38:01.419Z,16.60
2018-07-22T04:40:29.022Z,14.33
2018-07-22T04:42:56.584Z,15.53
2018-07-22T04:45:24.153Z,15.50
2018-07-22T04:47:51.748Z,14.53
2018-07-22T04:50:19.304Z,15.90
2018-07-22T04:52:46.871Z,17.53
2018-07-22T04:55:14.471Z,16.10
2018-07-22T04:57:42.035Z,17.37
2018-07-22T05:00:09.598Z,16.13
2018-07-22T05:02:37.205Z,18.57
2018-07-22T05:05:04.765Z,14.63
2018-07-22T05:07:32.329Z,14.80
2018-07-22T05:09:59.925Z,15.60
2018-07-22T05:12:27.484Z,14.60
2018-07-22T05:14:55.810Z,13.10
2018-07-22T05:17:23.401Z,15.02
2018-07-22T05:19:50.967Z,13.63
2018-07-22T05:22:19.302Z,14.90
2018-07-22T05:24:46.907Z,13.07
2018-07-22T05:27:14.482Z,13.47
2018-07-22T05:29:42.819Z,17.03
2018-07-22T05:32:10.411Z,17.07
2018-07-22T05:34:37.982Z,22.90
2018-07-22T05:37:06.305Z,19.83
2018-07-22T05:39:33.899Z,17.30
2018-07-22T05:42:01.582Z,16.67
2018-07-22T05:44:29.037Z,18.90
2018-07-22T05:46:56.632Z,17.03
2018-07-22T05:49:24.195Z,16.23
2018-07-22T05:51:51.752Z,17.47
2018-07-22T05:54:19.347Z,19.17
2018-07-22T05:56:46.907Z,16.93
2018-07-22T05:59:14.974Z,17.73
2018-07-22T06:01:42.579Z,15.87
2018-07-22T06:04:10.148Z,18.23
2018-07-22T06:06:38.479Z,16.67
2018-07-22T06:09:06.088Z,19.27
2018-07-22T06:11:34.421Z,16.30
2018-07-22T06:14:01.983Z,19.43
2018-07-22T06:16:29.576Z,16.30
2018-07-22T06:18:57.141Z,16.47
2018-07-22T06:21:25.472Z,16.53
2018-07-22T06:23:53.062Z,13.93
2018-07-22T06:26:20.627Z,15.07
2018-07-22T06:28:48.190Z,16.70
2018-07-22T06:31:15.797Z,16.67
2018-07-22T06:33:43.355Z,19.77
2018-07-22T06:36:10.918Z,14.77
2018-07-22T06:38:38.516Z,15.77
2018-07-22T06:41:06.108Z,14.83
2018-07-22T06:43:33.651Z,15.57
2018-07-22T06:46:01.251Z,20.27
2018-07-22T06:48:28.809Z,20.53
2018-07-22T06:50:57.142Z,18.23
2018-07-22T06:53:24.769Z,16.10
2018-07-22T06:55:53.077Z,15.83
2018-07-22T06:58:20.642Z,20.07
2018-07-22T07:00:48.266Z,15.63
2018-07-22T07:03:16.581Z,18.07
2018-07-22T07:05:44.154Z,16.60
2018-07-22T07:08:12.522Z,15.93
2018-07-22T07:10:40.081Z,14.37
2018-07-22T07:13:07.642Z,15.53
2018-07-22T07:15:36.235Z,13.57
2018-07-22T07:18:03.793Z,13.07
2018-07-22T07:20:31.358Z,14.83
2018-07-22T07:22:58.958Z,12.33
2018-07-22T07:25:27.287Z,12.20
2018-07-22T07:27:54.848Z,13.93
2018-07-22T07:30:22.499Z,11.33
2018-07-22T07:32:50.053Z,9.90
2018-07-22T07:35:17.609Z,10.67
2018-07-22T07:37:45.609Z,12.80
2018-07-22T07:40:13.165Z,10.07
2018-07-22T07:42:40.735Z,11.83
2018-07-22T07:45:08.349Z,10.33
2018-07-22T07:47:35.907Z,11.10
2018-07-22T07:50:04.233Z,12.20
2018-07-22T07:52:31.835Z,10.80
2018-07-22T07:54:59.557Z,8.30
2018-07-22T07:57:27.123Z,12.67
2018-07-22T07:59:54.725Z,10.30
2018-07-22T08:02:23.057Z,12.03
2018-07-22T08:04:50.621Z,10.17
2018-07-22T08:07:18.234Z,10.23
2018-07-22T08:09:46.559Z,7.33
2018-07-22T08:12:14.110Z,7.13
2018-07-22T08:14:41.727Z,9.13
2018-07-22T08:17:10.061Z,7.53
2018-07-22T08:19:37.624Z,10.75
2018-07-22T08:22:06.624Z,9.88
2018-07-22T08:24:34.179Z,8.80
2018-07-22T08:27:01.732Z,6.30
2018-07-22T08:29:29.383Z,6.37
2018-07-22T08:31:56.933Z,8.03
2018-07-22T08:34:24.490Z,6.73
2018-07-22T08:36:52.093Z,5.77
2018-07-22T08:39:19.659Z,7.93
2018-07-22T08:41:47.215Z,12.70
2018-07-22T08:44:14.838Z,8.50
2018-07-22T08:46:42.386Z,6.23
2018-07-22T08:49:10.716Z,8.90
2018-07-22T08:51:38.314Z,7.67
2018-07-22T08:54:06.637Z,9.00
2018-07-22T08:56:34.193Z,10.63
2018-07-22T08:59:01.829Z,9.23
2018-07-22T09:01:29.361Z,7.07
2018-07-22T09:03:56.923Z,9.20
2018-07-22T09:06:24.864Z,7.43
2018-07-22T09:08:52.425Z,9.40
2018-07-22T09:11:19.983Z,7.43
2018-07-22T09:13:47.586Z,10.90
2018-07-22T09:16:15.146Z,7.50
2018-07-22T09:18:42.704Z,7.37
2018-07-22T09:21:11.116Z,6.73
2018-07-22T09:23:38.678Z,6.33
2018-07-22T09:26:06.232Z,7.73
2018-07-22T09:28:34.605Z,7.57
2018-07-22T09:31:02.935Z,6.93
2018-07-22T09:33:30.523Z,7.50
2018-07-22T09:35:58.603Z,5.77
2018-07-22T09:38:26.130Z,7.72
2018-07-22T09:40:53.692Z,8.40
2018-07-22T09:43:21.297Z,8.13
2018-07-22T09:45:49.626Z,6.53
2018-07-22T09:48:17.186Z,8.73
2018-07-22T09:50:44.900Z,6.03
2018-07-22T09:53:12.453Z,8.13
2018-07-22T09:55:40.010Z,5.77
2018-07-22T09:58:08.354Z,5.93
2018-07-22T10:00:35.911Z,10.30
2018-07-22T10:03:03.473Z,7.03
2018-07-22T10:05:31.410Z,10.77
2018-07-22T10:07:58.970Z,8.17
2018-07-22T10:10:26.528Z,7.77
2018-07-22T10:12:54.127Z,11.77
2018-07-22T10:15:21.679Z,9.97
2018-07-22T10:17:49.245Z,7.70
2018-07-22T10:20:17.299Z,8.37
2018-07-22T10:22:44.868Z,7.43
2018-07-22T10:25:12.420Z,16.83
2018-07-22T10:27:40.025Z,13.80
2018-07-22T10:30:07.582Z,6.80
2018-07-22T10:32:35.133Z,9.77
2018-07-22T10:35:02.764Z,7.97
2018-07-22T10:37:30.314Z,6.90
2018-07-22T10:39:57.877Z,6.83
2018-07-22T10:42:25.512Z,7.67
2018-07-22T10:44:53.074Z,9.63
2018-07-22T10:47:20.626Z,7.90
2018-07-22T10:49:48.228Z,7.07
2018-07-22T10:52:15.774Z,7.60
2018-07-22T10:54:44.102Z,9.97
2018-07-22T10:57:12.582Z,8.67
2018-07-22T10:59:40.144Z,7.70
2018-07-22T11:02:07.708Z,10.13
2018-07-22T11:04:35.313Z,9.10
2018-07-22T11:07:03.635Z,7.03
2018-07-22T11:09:31.188Z,7.73
2018-07-22T11:11:58.788Z,8.63
2018-07-22T11:14:26.375Z,9.13
2018-07-22T11:16:53.900Z,7.37
2018-07-22T11:19:21.539Z,10.60
2018-07-22T11:21:49.093Z,7.00
2018-07-22T11:24:16.653Z,10.03
2018-07-22T11:26:44.256Z,6.30
2018-07-22T11:31:51.619Z,8.93
2018-07-22T11:34:19.178Z,8.63
2018-07-22T11:36:46.745Z,8.37
2018-07-22T11:39:14.344Z,8.37
2018-07-22T11:41:41.896Z,9.27
2018-07-22T11:44:09.454Z,9.40
2018-07-22T11:46:37.072Z,8.70
2018-07-22T11:49:04.626Z,6.47
2018-07-22T11:51:32.949Z,8.60
2018-07-22T11:54:02.464Z,6.67
2018-07-22T11:56:28.891Z,7.00
2018-07-22T11:58:56.444Z,8.17
2018-07-22T12:01:24.047Z,7.90
2018-07-22T12:03:51.598Z,6.17
2018-07-22T12:06:19.161Z,7.75
2018-07-22T12:08:47.312Z,6.90
2018-07-22T12:11:14.887Z,6.87
2018-07-22T12:13:42.443Z,5.73
2018-07-22T12:16:10.504Z,6.90
2018-07-22T12:18:38.067Z,7.43
2018-07-22T12:21:05.619Z,6.00
2018-07-22T12:23:33.803Z,8.67
2018-07-22T12:26:01.357Z,8.10
2018-07-22T12:28:28.920Z,7.83
2018-07-22T12:30:56.516Z,8.97
2018-07-22T12:33:24.072Z,6.40
2018-07-22T12:35:51.637Z,5.82
2018-07-22T12:38:20.205Z,7.22
2018-07-22T12:40:47.760Z,7.95
2018-07-22T12:43:15.322Z,8.33
2018-07-22T12:45:43.424Z,5.60
2018-07-22T12:48:10.976Z,5.90
2018-07-22T12:50:38.533Z,6.80
2018-07-22T12:53:06.135Z,5.77
2018-07-22T12:55:33.692Z,7.00
2018-07-22T12:58:01.251Z,5.27
2018-07-22T13:00:28.856Z,5.10
2018-07-22T13:02:56.416Z,4.43
2018-07-22T13:05:23.977Z,6.40
2018-07-22T13:07:51.950Z,5.60
2018-07-22T13:10:19.515Z,4.93
2018-07-22T13:12:47.119Z,4.67
2018-07-22T13:15:15.485Z,10.60
2018-07-22T13:17:43.040Z,8.50
2018-07-22T13:20:10.670Z,6.33
2018-07-22T13:22:38.281Z,5.53
2018-07-22T13:25:07.025Z,5.13
2018-07-22T13:27:37.494Z,5.57
2018-07-22T13:30:06.185Z,6.50
2018-07-22T13:32:33.742Z,4.97
2018-07-22T13:35:01.328Z,4.73
2018-07-22T13:37:28.952Z,7.10
2018-07-22T13:39:56.509Z,4.67
2018-07-22T13:42:24.061Z,7.10
2018-07-22T13:44:51.668Z,6.23
2018-07-22T13:47:20.001Z,6.07
2018-07-22T13:49:47.560Z,5.20
2018-07-22T13:52:15.159Z,5.70
2018-07-22T13:54:42.718Z,4.43
2018-07-22T13:57:11.047Z,6.43
2018-07-22T13:59:38.652Z,7.90
2018-07-22T14:02:06.205Z,5.27
2018-07-22T14:04:33.757Z,6.17
2018-07-22T14:07:01.393Z,6.43
2018-07-22T14:09:28.952Z,5.32
2018-07-22T14:11:56.551Z,6.27
2018-07-22T14:14:24.165Z,4.67
2018-07-22T14:16:51.725Z,11.83
2018-07-22T14:19:19.284Z,5.33
2018-07-22T14:21:46.879Z,5.93
2018-07-22T14:24:14.432Z,7.17
2018-07-22T14:26:41.991Z,6.80
2018-07-22T14:29:10.776Z,6.40
2018-07-22T14:31:38.340Z,6.93
2018-07-22T14:34:05.888Z,5.50
2018-07-22T14:36:33.926Z,7.20
2018-07-22T14:39:02.247Z,5.67
2018-07-22T14:41:29.799Z,5.97
2018-07-22T14:43:57.398Z,4.70
2018-07-22T14:46:24.958Z,5.50
2018-07-22T14:48:52.526Z,6.63
2018-07-22T14:51:20.121Z,5.90
2018-07-22T14:53:47.668Z,6.00
2018-07-22T14:56:15.997Z,6.80
2018-07-22T14:58:44.169Z,6.70
2018-07-22T15:01:11.757Z,5.10
2018-07-22T15:03:39.270Z,5.90
2018-07-22T15:06:07.917Z,6.93
2018-07-22T15:08:36.253Z,5.00
2018-07-22T15:11:03.807Z,7.57
2018-07-22T15:13:31.451Z,5.10
2018-07-22T15:15:59.002Z,7.20
2018-07-22T15:18:26.550Z,5.97
2018-07-22T15:20:54.932Z,5.57
2018-07-22T15:23:23.253Z,4.87
2018-07-22T15:25:50.809Z,5.33
2018-07-22T15:28:19.324Z,8.43
2018-07-22T15:30:46.883Z,7.53
2018-07-22T15:33:14.435Z,5.17
2018-07-22T15:35:42.041Z,6.10
2018-07-22T15:38:09.598Z,7.20
2018-07-22T15:40:37.154Z,5.33
2018-07-22T15:43:06.424Z,5.77
2018-07-22T15:45:34.027Z,5.57
2018-07-22T15:48:02.346Z,6.30
2018-07-22T15:50:29.984Z,5.97
2018-07-22T15:52:57.513Z,6.00
2018-07-22T15:55:25.274Z,8.03
2018-07-22T15:57:52.673Z,8.70
2018-07-22T16:00:20.225Z,7.13
2018-07-22T16:02:47.778Z,7.60
2018-07-22T16:05:15.423Z,7.23
2018-07-22T16:07:43.741Z,6.00
2018-07-22T16:10:11.297Z,5.03
2018-07-22T16:12:39.804Z,6.90
2018-07-22T16:15:07.370Z,5.63
2018-07-22T16:17:34.921Z,7.60
2018-07-22T16:20:03.397Z,5.57
2018-07-22T16:22:30.949Z,7.80
2018-07-22T16:24:58.506Z,9.07
2018-07-22T16:27:27.041Z,6.97
2018-07-22T16:29:54.598Z,5.70
2018-07-22T16:32:22.153Z,7.80
2018-07-22T16:34:49.761Z,5.50
2018-07-22T16:37:17.318Z,5.30
2018-07-22T16:39:44.872Z,7.60
2018-07-22T16:42:13.722Z,5.80
2018-07-22T16:44:41.268Z,5.43
2018-07-22T16:47:08.814Z,6.83
2018-07-22T16:49:36.416Z,7.57
2018-07-22T16:52:03.975Z,7.17
2018-07-22T16:54:31.534Z,6.05
2018-07-22T16:56:59.465Z,7.50
2018-07-22T16:59:27.022Z,5.90
2018-07-22T17:01:54.579Z,6.03
2018-07-22T17:04:22.528Z,9.73
2018-07-22T17:06:50.857Z,5.60
2018-07-22T17:09:18.407Z,7.60
2018-07-22T17:11:46.025Z,8.60
2018-07-22T17:14:14.339Z,7.97
2018-07-22T17:16:41.897Z,6.30
2018-07-22T17:19:09.498Z,7.10
2018-07-22T17:21:37.047Z,5.83
2018-07-22T17:24:04.604Z,7.20
2018-07-22T17:26:32.207Z,8.13
2018-07-22T17:29:00.526Z,6.90
2018-07-22T17:31:28.083Z,6.83
2018-07-22T17:33:55.685Z,5.93
2018-07-22T17:36:23.237Z,6.03
2018-07-22T17:38:50.841Z,7.60
2018-07-22T17:41:18.759Z,6.20
2018-07-22T17:43:46.306Z,5.60
2018-07-22T17:46:13.863Z,5.83
2018-07-22T17:48:42.667Z,6.30
2018-07-22T17:51:10.225Z,6.00
2018-07-22T17:53:37.772Z,7.33
2018-07-22T17:56:05.418Z,6.53
2018-07-22T17:58:32.967Z,6.90
2018-07-22T18:01:01.295Z,7.93
2018-07-22T18:03:29.471Z,6.23
2018-07-22T18:05:57.030Z,7.93
2018-07-22T18:08:24.590Z,7.23
2018-07-22T18:10:52.774Z,6.30
2018-07-22T18:13:20.333Z,9.43
2018-07-22T18:15:47.886Z,5.60
2018-07-22T18:18:16.468Z,6.83
2018-07-22T18:20:44.024Z,7.18
2018-07-22T18:23:11.601Z,6.90
2018-07-22T18:25:40.181Z,5.93
2018-07-22T18:28:07.738Z,7.07
2018-07-22T18:30:35.297Z,8.10
2018-07-22T18:33:03.879Z,6.00
2018-07-22T18:35:31.436Z,6.13
2018-07-22T18:37:58.999Z,6.22
2018-07-22T18:40:26.597Z,6.93
2018-07-22T18:42:54.153Z,7.20
2018-07-22T18:45:21.750Z,6.95
2018-07-22T18:47:49.761Z,7.22
2018-07-22T18:50:17.317Z,6.57
2018-07-22T18:52:44.872Z,6.27
2018-07-22T18:55:12.472Z,5.97
2018-07-22T18:57:40.029Z,11.27
2018-07-22T19:00:07.585Z,6.50
2018-07-22T19:02:35.540Z,7.32
2018-07-22T19:05:03.103Z,6.30
2018-07-22T19:07:30.654Z,7.87
2018-07-22T19:09:58.837Z,7.03
2018-07-22T19:12:26.709Z,6.83
2018-07-22T19:14:54.264Z,6.33
2018-07-22T19:17:21.863Z,8.63
2018-07-22T19:19:49.419Z,11.97
2018-07-22T19:22:16.975Z,7.70
2018-07-22T19:24:44.621Z,9.87
2018-07-22T19:27:12.143Z,7.30
2018-07-22T19:29:39.704Z,6.73
2018-07-22T19:32:07.700Z,6.20
2018-07-22T19:34:35.257Z,6.97
2018-07-22T19:37:02.813Z,7.53
2018-07-22T19:39:30.422Z,6.57
2018-07-22T19:41:57.980Z,6.90
2018-07-22T19:44:25.556Z,10.00
2018-07-22T19:46:53.141Z,6.90
2018-07-22T19:49:20.701Z,7.78
2018-07-22T19:51:48.260Z,8.03
2018-07-22T19:54:15.870Z,7.50
2018-07-22T19:56:43.423Z,6.83
2018-07-22T19:59:10.979Z,8.30
2018-07-22T20:01:38.579Z,6.77
2018-07-22T20:04:06.904Z,7.23
2018-07-22T20:06:34.462Z,6.17
2018-07-22T20:09:02.065Z,7.70
2018-07-22T20:11:29.621Z,6.90
2018-07-22T20:13:57.181Z,8.40
2018-07-22T20:16:25.334Z,9.33
2018-07-22T20:18:52.889Z,6.60
2018-07-22T20:21:20.442Z,8.17
2018-07-22T20:23:48.977Z,7.87
2018-07-22T20:26:16.503Z,9.50
2018-07-22T20:28:44.070Z,11.30
2018-07-22T20:31:11.684Z,10.67
2018-07-22T20:33:40.000Z,8.67
2018-07-22T20:36:07.565Z,8.90
2018-07-22T20:38:35.664Z,9.77
2018-07-22T20:41:03.218Z,8.67
2018-07-22T20:43:30.777Z,10.10
2018-07-22T20:45:58.375Z,9.00
2018-07-22T20:48:26.718Z,8.67
2018-07-22T20:50:54.288Z,7.60
2018-07-22T20:53:21.889Z,8.43
2018-07-22T20:55:49.443Z,7.53
2018-07-22T20:58:16.994Z,9.50
2018-07-22T21:00:44.616Z,9.43
2018-07-22T21:03:12.177Z,7.30
2018-07-22T21:05:39.732Z,7.83
2018-07-22T21:08:08.181Z,7.77
2018-07-22T21:10:35.695Z,7.07
2018-07-22T21:13:12.174Z,9.27
2018-07-22T21:15:39.729Z,10.45
2018-07-22T21:18:07.289Z,9.37
2018-07-22T21:20:34.897Z,7.90
2018-07-22T21:23:02.457Z,9.02
2018-07-22T21:25:30.019Z,9.23
2018-07-22T21:27:57.617Z,7.80
2018-07-22T21:30:25.185Z,11.77
2018-07-22T21:32:52.745Z,9.02
2018-07-22T21:35:20.915Z,10.07
2018-07-22T21:37:48.469Z,8.13
2018-07-22T21:40:16.061Z,9.33
2018-07-22T21:42:43.624Z,9.97
2018-07-22T21:45:11.181Z,7.90
2018-07-22T21:47:38.738Z,7.87
2018-07-22T21:50:06.345Z,8.57
2018-07-22T21:52:33.912Z,11.57
2018-07-22T21:55:01.469Z,9.33
2018-07-22T21:57:29.095Z,9.93
2018-07-22T21:59:56.653Z,8.73
2018-07-22T22:02:24.225Z,8.43
2018-07-22T22:04:52.771Z,9.37
2018-07-22T22:07:20.337Z,12.00
2018-07-22T22:09:47.941Z,7.27
2018-07-22T22:12:16.571Z,8.20
2018-07-22T22:14:44.124Z,8.57
2018-07-22T22:17:11.735Z,8.70
2018-07-22T22:19:39.279Z,8.73
2018-07-22T22:22:06.843Z,10.23
2018-07-22T22:24:34.409Z,10.48
2018-07-22T22:27:01.989Z,9.97
2018-07-22T22:29:30.308Z,9.33
2018-07-22T22:31:57.866Z,11.40
2018-07-22T22:34:25.462Z,10.20
2018-07-22T22:36:53.019Z,8.47
2018-07-22T22:39:20.579Z,10.43
2018-07-22T22:41:48.744Z,10.57
2018-07-22T22:44:16.302Z,11.35
2018-07-22T22:46:43.873Z,9.07
2018-07-22T22:49:11.460Z,10.57
2018-07-22T22:51:39.021Z,10.87
2018-07-22T22:54:06.589Z,10.13
2018-07-22T22:56:34.178Z,9.63
2018-07-22T22:59:16.960Z,9.60
2018-07-22T23:01:44.558Z,9.70
2018-07-22T23:04:12.117Z,10.10
2018-07-22T23:06:39.663Z,9.83
2018-07-22T23:09:07.256Z,8.60
2018-07-22T23:11:34.811Z,9.80
2018-07-22T23:14:02.373Z,10.17
2018-07-22T23:16:29.958Z,13.90
2018-07-22T23:18:57.530Z,8.53
2018-07-22T23:21:25.089Z,12.60
2018-07-22T23:23:52.689Z,9.43
2018-07-22T23:26:21.014Z,11.33
2018-07-22T23:28:48.572Z,10.07
2018-07-22T23:31:16.162Z,9.17
2018-07-22T23:33:43.717Z,8.50
2018-07-22T23:36:11.267Z,10.23
2018-07-22T23:38:38.860Z,9.80
2018-07-22T23:41:07.183Z,9.90
2018-07-22T23:43:34.737Z,10.53
2018-07-22T23:46:02.352Z,12.47
2018-07-22T23:48:29.918Z,9.87
2018-07-22T23:50:57.472Z,9.77
2018-07-22T23:53:25.065Z,9.77
2018-07-22T23:55:53.393Z,11.73
2018-07-22T23:58:20.944Z,15.37
